Time;durP1;ratioP1;P1;durP2;ratioP2;P2;SDS_P1;SDS_P2;PMS_P1;PMS_P2;Temp;Humidity;BMP_temperature;BMP_pressure;BME280_temperature;BME280_humidity;BME280_pressure;Samples;Min_cycle;Max_cycle;Signal;HPM_P1;HPM_P2
2023/03/07 00:02:14;;;;;;;18.20;13.90;;;;;;;-0.22;78.53;98801.95;106143;1256;60442;-73
2023/03/07 00:04:45;;;;;;;19.60;14.20;;;;;;;-0.14;78.31;98797.13;106093;1256;72819;-73
2023/03/07 00:07:12;;;;;;;22.10;13.80;;;;;;;-0.03;77.91;98789.08;107212;1254;70573;-69
2023/03/07 00:09:39;;;;;;;22.20;14.30;;;;;;;-0.02;77.89;98791.30;107873;1251;71619;-70
2023/03/07 00:12:07;;;;;;;21.00;15.40;;;;;;;-0.05;77.68;98788.58;106273;1254;60945;-74
2023/03/07 00:14:35;;;;;;;22.00;15.00;;;;;;;-0.08;77.80;98784.61;106139;1253;61598;-71
2023/03/07 00:17:01;;;;;;;21.50;16.10;;;;;;;-0.11;77.73;98781.41;106090;1256;74039;-72
2023/03/07 00:19:28;;;;;;;24.40;15.20;;;;;;;-0.15;77.78;98779.59;105711;1256;70521;-72
2023/03/07 00:21:55;;;;;;;22.00;15.40;;;;;;;-0.09;77.51;98774.42;105749;1253;71429;-74
2023/03/07 00:24:23;;;;;;;21.20;14.90;;;;;;;-0.02;77.13;98771.57;105917;1254;60552;-72
2023/03/07 00:26:50;;;;;;;24.40;15.40;;;;;;;-0.05;77.36;98769.20;105935;1254;60329;-71
2023/03/07 00:29:16;;;;;;;27.20;17.50;;;;;;;-0.09;77.19;98761.58;105925;1254;74667;-72
2023/03/07 00:32:03;;;;;;;29.90;17.40;;;;;;;-0.13;77.16;98763.81;106055;1251;72637;-71
2023/03/07 00:34:31;;;;;;;26.40;15.70;;;;;;;-0.15;77.18;98756.32;105605;1251;72228;-71
2023/03/07 00:36:58;;;;;;;24.60;16.20;;;;;;;-0.16;77.15;98762.69;105596;1251;60473;-73
2023/03/07 00:39:26;;;;;;;26.60;16.50;;;;;;;-0.07;77.18;98762.08;105790;1251;60997;-71
2023/03/07 00:41:53;;;;;;;26.00;16.50;;;;;;;-0.04;76.97;98760.09;105677;1256;74085;-71
2023/03/07 00:44:21;;;;;;;26.70;16.20;;;;;;;-0.08;76.88;98755.41;105970;1256;70271;-71
2023/03/07 00:46:48;;;;;;;24.10;16.30;;;;;;;-0.13;77.00;98756.86;106039;1257;72678;-72
2023/03/07 00:49:15;;;;;;;28.10;17.00;;;;;;;-0.20;77.31;98758.77;105868;1251;60546;-72
2023/03/07 00:51:42;;;;;;;22.20;14.60;;;;;;;-0.26;77.28;98755.12;105601;1254;61473;-72
2023/03/07 00:54:09;;;;;;;22.30;15.00;;;;;;;-0.19;77.23;98755.02;105761;1256;74879;-72
2023/03/07 00:56:36;;;;;;;21.20;14.40;;;;;;;-0.13;76.91;98751.28;106107;1251;71345;-73
2023/03/07 00:59:03;;;;;;;24.70;16.60;;;;;;;-0.15;77.06;98753.77;105965;1254;72219;-72
2023/03/07 01:01:30;;;;;;;23.10;16.30;;;;;;;-0.21;77.08;98749.29;108681;1251;60305;-72
2023/03/07 01:03:57;;;;;;;23.90;15.90;;;;;;;-0.24;77.01;98741.39;108965;1251;60232;-78
2023/03/07 01:06:27;;;;;;;25.30;15.50;;;;;;;-0.27;77.26;98738.62;106354;1251;73577;-74
2023/03/07 01:08:56;;;;;;;22.30;15.20;;;;;;;-0.17;77.05;98733.52;105770;1251;69946;-75
2023/03/07 01:11:25;;;;;;;21.80;15.30;;;;;;;-0.15;77.06;98727.45;105729;1254;73852;-74
2023/03/07 01:13:58;;;;;;;21.10;14.90;;;;;;;-0.21;76.90;98728.39;106049;1253;60516;-75
2023/03/07 01:16:29;;;;;;;24.20;15.30;;;;;;;-0.26;77.07;98725.67;105831;1254;60450;-73
2023/03/07 01:18:58;;;;;;;26.10;16.60;;;;;;;-0.32;77.26;98719.91;105932;1252;73999;-73
2023/03/07 01:21:36;;;;;;;21.50;15.00;;;;;;;-0.37;77.43;98715.94;106089;1254;70401;-75
2023/03/07 01:24:04;;;;;;;18.60;14.10;;;;;;;-0.28;77.35;98719.45;106014;1255;72038;-77
2023/03/07 01:26:33;;;;;;;22.80;16.30;;;;;;;-0.30;77.31;98713.83;106003;1256;60476;-73
2023/03/07 01:29:02;;;;;;;21.90;14.90;;;;;;;-0.35;77.54;98709.89;106214;1254;60521;-73
2023/03/07 01:31:32;;;;;;;23.60;16.20;;;;;;;-0.40;77.55;98707.14;106464;1251;73772;-73
2023/03/07 01:34:01;;;;;;;24.80;15.80;;;;;;;-0.44;77.68;98703.83;106004;1253;71802;-73
2023/03/07 01:36:32;;;;;;;23.60;14.90;;;;;;;-0.40;77.68;98696.56;105867;1251;71383;-73
2023/03/07 01:39:13;;;;;;;20.70;14.20;;;;;;;-0.32;77.37;98697.64;106012;1251;60575;-74
2023/03/07 01:41:54;;;;;;;24.50;16.50;;;;;;;-0.34;77.51;98694.88;106097;1253;60536;-74
2023/03/07 01:44:25;;;;;;;25.40;16.60;;;;;;;-0.39;77.53;98690.88;106007;1256;75061;-73
2023/03/07 01:46:59;;;;;;;23.40;17.30;;;;;;;-0.42;77.50;98693.73;106043;1254;70557;-72
2023/03/07 01:49:36;;;;;;;22.70;15.90;;;;;;;-0.44;77.55;98693.91;105899;1254;73624;-74
2023/03/07 01:52:13;;;;;;;23.40;15.80;;;;;;;-0.40;77.48;98694.29;105833;1256;268721;-70
2023/03/07 01:57:33;;;;;;;23.90;16.00;;;;;;;-0.25;77.02;98681.57;102390;1296;603612;-72
2023/03/07 02:00:05;;;;;;;21.20;15.10;;;;;;;-0.27;76.89;98683.43;105327;1269;59363;-72
2023/03/07 02:02:43;;;;;;;23.10;15.30;;;;;;;-0.27;76.73;98678.06;104973;1272;59355;-73
2023/03/07 02:05:27;;;;;;;22.70;15.40;;;;;;;-0.29;76.78;98671.65;104876;1269;70362;-71
2023/03/07 02:07:54;;;;;;;22.90;15.10;;;;;;;-0.23;76.74;98670.10;105107;1269;70572;-71
2023/03/07 02:10:23;;;;;;;22.20;15.90;;;;;;;-0.14;76.10;98667.48;104511;1266;183408;-71
2023/03/07 02:12:51;;;;;;;23.80;16.80;;;;;;;-0.17;76.21;98665.44;105105;1267;60194;-73
2023/03/07 02:15:21;;;;;;;22.60;16.50;;;;;;;-0.21;76.34;98662.10;105003;1267;59785;-71
2023/03/07 02:17:48;;;;;;;21.80;15.30;;;;;;;-0.24;76.13;98655.73;104952;1268;73232;-71
2023/03/07 02:20:52;;;;;;;28.40;17.10;;;;;;;-0.27;76.24;98654.73;105011;1266;70420;-73
2023/03/07 02:23:40;;;;;;;24.00;15.90;;;;;;;-0.15;75.90;98652.92;105454;1260;70573;-74
2023/03/07 02:26:25;;;;;;;24.60;17.20;;;;;;;-0.10;75.76;98648.48;105558;1260;60691;-71
2023/03/07 02:28:52;;;;;;;26.70;17.60;;;;;;;-0.12;75.62;98650.59;106362;1260;59681;-71
2023/03/07 02:31:19;;;;;;;29.60;18.50;;;;;;;-0.16;75.56;98648.97;106071;1260;73024;-71
2023/03/07 02:33:48;;;;;;;29.10;19.20;;;;;;;-0.19;75.55;98648.35;106289;1260;69766;-70
2023/03/07 02:36:18;;;;;;;32.50;19.10;;;;;;;-0.22;75.51;98642.36;106275;1259;71836;-72
2023/03/07 02:38:51;;;;;;;27.20;17.20;;;;;;;-0.18;75.57;98640.15;105801;1260;60821;-71
2023/03/07 02:41:26;;;;;;;41.10;17.90;;;;;;;-0.07;75.26;98634.30;105634;1259;61265;-72
2023/03/07 02:43:53;;;;;;;26.20;16.90;;;;;;;-0.04;75.12;98634.92;105639;1260;73307;-73
2023/03/07 02:46:20;;;;;;;26.70;17.50;;;;;;;-0.06;75.00;98633.89;105644;1260;71352;-73
2023/03/07 02:48:47;;;;;;;31.80;19.10;;;;;;;-0.07;74.92;98639.72;105818;1259;73615;-71
2023/03/07 02:51:15;;;;;;;29.00;19.40;;;;;;;-0.09;74.82;98635.91;106960;1261;60334;-72
2023/03/07 02:53:42;;;;;;;28.40;18.50;;;;;;;-0.11;74.88;98631.20;106392;1265;60293;-70
2023/03/07 02:56:10;;;;;;;29.30;18.50;;;;;;;-0.12;74.72;98630.58;105526;1262;74137;-72
2023/03/07 02:58:37;;;;;;;29.10;17.40;;;;;;;-0.03;74.51;98630.20;105530;1260;71414;-73
2023/03/07 03:01:04;;;;;;;27.60;17.30;;;;;;;0.03;74.13;98627.27;105521;1260;70693;-74
2023/03/07 03:03:30;;;;;;;28.80;18.90;;;;;;;-0.00;74.25;98622.46;105301;1260;59822;-73
2023/03/07 03:05:58;;;;;;;28.00;18.00;;;;;;;-0.04;74.08;98616.52;105289;1259;61213;-72
2023/03/07 03:08:25;;;;;;;27.20;18.80;;;;;;;-0.07;74.18;98618.48;105175;1260;73422;-73
2023/03/07 03:10:53;;;;;;;27.90;19.00;;;;;;;-0.10;74.14;98621.34;105662;1260;69680;-71
2023/03/07 03:13:20;;;;;;;26.30;17.50;;;;;;;-0.11;74.06;98622.84;105168;1262;73703;-72
2023/03/07 03:15:47;;;;;;;26.70;16.80;;;;;;;-0.02;73.94;98623.45;105415;1254;60419;-72
2023/03/07 03:18:16;;;;;;;23.10;16.00;;;;;;;0.04;73.77;98623.52;105595;1254;62529;-74
2023/03/07 03:20:43;;;;;;;26.50;16.00;;;;;;;0.03;73.65;98619.46;105913;1255;73774;-73
2023/03/07 03:23:11;;;;;;;23.50;15.40;;;;;;;-0.00;73.47;98616.20;105587;1253;70609;-73
2023/03/07 03:25:38;;;;;;;24.80;16.70;;;;;;;-0.02;73.51;98613.90;105284;1256;73633;-72
2023/03/07 03:28:07;;;;;;;26.50;17.00;;;;;;;-0.04;73.47;98610.95;106167;1253;60002;-73
2023/03/07 03:30:35;;;;;;;23.90;14.60;;;;;;;-0.04;73.49;98609.03;105904;1256;59631;-72
2023/03/07 03:33:03;;;;;;;22.40;15.00;;;;;;;0.08;73.39;98611.84;105916;1257;73633;-74
2023/03/07 03:35:32;;;;;;;22.60;15.10;;;;;;;0.17;73.06;98608.61;105818;1258;71028;-76
2023/03/07 03:37:59;;;;;;;20.30;14.00;;;;;;;0.18;72.86;98609.73;106003;1253;73434;-74
2023/03/07 03:40:30;;;;;;;25.00;15.20;;;;;;;0.17;72.60;98607.25;105978;1254;59674;-76
2023/03/07 03:42:58;;;;;;;24.40;14.60;;;;;;;0.15;72.56;98598.35;105998;1253;59644;-71
2023/03/07 03:45:25;;;;;;;21.80;14.50;;;;;;;0.14;72.68;98601.77;108201;1253;72366;-72
2023/03/07 03:47:51;;;;;;;21.20;13.80;;;;;;;0.13;72.53;98603.38;107918;1254;71319;-71
2023/03/07 03:50:18;;;;;;;21.20;13.90;;;;;;;0.13;72.37;98603.86;105340;1256;72881;-72
2023/03/07 03:52:46;;;;;;;20.10;13.60;;;;;;;0.25;72.31;98598.27;105448;1254;62274;-73
2023/03/07 03:55:13;;;;;;;23.20;14.30;;;;;;;0.31;71.98;98594.61;105444;1260;61433;-72
2023/03/07 03:57:42;;;;;;;21.20;13.70;;;;;;;0.32;71.81;98599.90;105971;1257;74239;-73
2023/03/07 04:00:13;;;;;;;20.90;14.30;;;;;;;0.30;71.72;98600.93;105731;1254;70453;-73
2023/03/07 04:02:40;;;;;;;22.90;15.40;;;;;;;0.28;71.75;98593.61;105495;1257;72692;-73
2023/03/07 04:05:08;;;;;;;20.20;14.20;;;;;;;0.26;71.92;98596.25;105630;1254;59692;-72
2023/03/07 04:07:40;;;;;;;20.50;14.40;;;;;;;0.24;71.84;98600.06;105748;1253;61196;-74
2023/03/07 04:10:08;;;;;;;20.50;13.00;;;;;;;0.22;71.88;98604.55;105754;1254;71963;-72
2023/03/07 04:12:37;;;;;;;24.60;13.70;;;;;;;0.32;71.73;98604.46;105802;1253;70824;-73
2023/03/07 04:15:06;;;;;;;20.50;13.90;;;;;;;0.37;71.49;98608.55;105865;1254;73003;-74
2023/03/07 04:17:39;;;;;;;22.10;15.50;;;;;;;0.33;71.43;98606.46;105638;1255;60975;-73
2023/03/07 04:20:13;;;;;;;22.90;15.00;;;;;;;0.28;71.60;98615.01;105813;1253;61107;-72
2023/03/07 04:22:39;;;;;;;24.10;15.80;;;;;;;0.26;71.71;98609.67;105615;1255;72145;-75
2023/03/07 04:25:06;;;;;;;23.10;14.50;;;;;;;0.23;71.77;98599.61;105804;1254;69278;-75
2023/03/07 04:27:34;;;;;;;23.50;13.50;;;;;;;0.24;71.78;98594.89;105590;1257;72904;-71
2023/03/07 04:30:04;;;;;;;20.90;13.40;;;;;;;0.37;71.67;98596.54;105985;1257;59776;-74
2023/03/07 04:32:33;;;;;;;22.00;14.10;;;;;;;0.42;71.37;98598.23;105729;1254;59932;-73
2023/03/07 04:34:59;;;;;;;22.30;14.60;;;;;;;0.38;71.39;98598.63;105726;1255;74020;-73
2023/03/07 04:37:26;;;;;;;17.40;13.60;;;;;;;0.37;71.42;98599.32;106229;1253;70137;-69
2023/03/07 04:39:53;;;;;;;23.00;14.20;;;;;;;0.35;71.57;98601.17;107295;1259;70917;-73
2023/03/07 04:42:20;;;;;;;21.60;15.10;;;;;;;0.35;71.51;98593.83;107050;1255;59344;-73
2023/03/07 04:44:46;;;;;;;22.80;14.30;;;;;;;0.35;71.56;98585.17;105805;1257;61414;-71
2023/03/07 04:47:14;;;;;;;26.10;13.30;;;;;;;0.39;71.48;98587.80;105769;1253;74118;-74
2023/03/07 04:49:42;;;;;;;23.40;14.70;;;;;;;0.53;71.32;98583.96;105944;1258;69574;-73
2023/03/07 04:52:09;;;;;;;20.80;14.30;;;;;;;0.58;71.05;98586.69;105728;1253;72998;-72
2023/03/07 04:54:36;;;;;;;21.30;14.70;;;;;;;0.59;70.81;98591.17;105731;1259;59743;-74
2023/03/07 04:57:03;;;;;;;22.80;15.30;;;;;;;0.59;70.85;98586.80;105736;1254;59710;-73
2023/03/07 04:59:37;;;;;;;18.90;14.10;;;;;;;0.58;70.90;98581.46;105758;1259;72624;-73
2023/03/07 05:02:06;;;;;;;24.50;17.40;;;;;;;0.57;70.81;98568.30;105867;1257;69195;-75
2023/03/07 05:04:33;;;;;;;21.40;15.10;;;;;;;0.56;70.94;98578.31;105891;1254;72679;-74
2023/03/07 05:07:01;;;;;;;20.40;13.80;;;;;;;0.56;70.89;98570.00;105755;1257;60635;-73
2023/03/07 05:09:29;;;;;;;28.30;16.30;;;;;;;0.60;70.85;98566.48;105648;1253;61357;-71
2023/03/07 05:11:58;;;;;;;20.00;13.60;;;;;;;0.75;70.64;98567.48;105648;1260;73301;-72
2023/03/07 05:14:25;;;;;;;21.10;13.50;;;;;;;0.77;70.53;98566.17;105674;1256;69739;-74
2023/03/07 05:16:52;;;;;;;19.60;12.70;;;;;;;0.77;70.54;98558.74;105432;1258;74193;-73
2023/03/07 05:19:19;;;;;;;18.60;12.80;;;;;;;0.79;70.55;98559.46;105550;1258;59701;-72
2023/03/07 05:22:06;;;;;;;20.50;13.60;;;;;;;0.78;70.29;98569.04;105717;1254;62379;-74
2023/03/07 05:24:38;;;;;;;20.80;13.40;;;;;;;0.78;70.26;98566.98;105779;1254;71932;-72
2023/03/07 05:27:05;;;;;;;19.40;13.80;;;;;;;0.79;70.18;98575.32;105595;1253;70402;-76
2023/03/07 05:29:32;;;;;;;18.80;12.90;;;;;;;0.79;70.30;98574.60;105756;1253;73497;-75
2023/03/07 05:32:00;;;;;;;17.70;11.90;;;;;;;0.80;70.32;98580.09;106916;1258;59534;-76
2023/03/07 05:34:27;;;;;;;19.50;12.30;;;;;;;0.91;70.08;98576.83;107903;1256;61209;-73
2023/03/07 05:36:57;;;;;;;19.90;12.50;;;;;;;1.01;69.77;98583.16;106946;1259;71675;-75
2023/03/07 05:39:26;;;;;;;17.10;11.60;;;;;;;0.98;69.63;98584.58;106660;1253;70395;-74
2023/03/07 05:41:53;;;;;;;19.90;12.30;;;;;;;0.95;69.77;98579.91;106110;1253;73523;-74
2023/03/07 05:44:21;;;;;;;20.30;14.00;;;;;;;0.94;69.83;98571.16;105807;1254;60279;-75
2023/03/07 05:46:49;;;;;;;23.00;13.60;;;;;;;0.93;70.22;98571.98;105863;1254;59776;-75
2023/03/07 05:49:17;;;;;;;20.50;13.10;;;;;;;0.91;71.44;98579.80;105949;1254;72928;-75
2023/03/07 05:51:46;;;;;;;19.90;12.90;;;;;;;0.93;72.69;98574.52;105619;1254;69605;-75
2023/03/07 05:54:13;;;;;;;18.40;12.10;;;;;;;0.99;73.30;98580.17;105602;1257;72384;-74
2023/03/07 05:56:40;;;;;;;22.20;14.00;;;;;;;0.91;74.93;98592.69;105879;1253;59744;-75
2023/03/07 05:59:08;;;;;;;20.10;13.40;;;;;;;0.77;77.73;98593.61;105883;1253;61323;-76
2023/03/07 06:01:40;;;;;;;20.10;13.40;;;;;;;0.70;79.42;98594.73;105748;1259;72090;-73
2023/03/07 06:04:07;;;;;;;22.50;14.30;;;;;;;0.64;80.76;98595.39;105751;1253;70677;-75
2023/03/07 06:06:34;;;;;;;26.80;16.40;;;;;;;0.51;81.82;98591.98;105858;1253;72460;-72
2023/03/07 06:09:03;;;;;;;22.00;14.60;;;;;;;0.36;83.39;98594.51;105803;1254;60760;-72
2023/03/07 06:11:31;;;;;;;18.80;12.30;;;;;;;0.34;84.74;98600.30;105774;1259;60480;-73
2023/03/07 06:13:58;;;;;;;18.10;12.70;;;;;;;0.33;85.57;98597.70;105926;1258;74836;-72
2023/03/07 06:16:25;;;;;;;20.30;14.90;;;;;;;0.27;86.20;98595.77;105732;1253;71275;-73
2023/03/07 06:18:54;;;;;;;20.20;13.90;;;;;;;0.16;86.95;98597.95;105568;1262;73574;-73
2023/03/07 06:21:21;;;;;;;24.00;13.90;;;;;;;0.08;88.62;98604.35;105630;1254;62228;-73
2023/03/07 06:23:47;;;;;;;22.20;14.80;;;;;;;0.10;89.41;98593.04;105760;1253;60431;-74
2023/03/07 06:26:18;;;;;;;20.50;14.50;;;;;;;0.12;90.09;98591.11;106552;1258;74758;-71
2023/03/07 06:28:52;;;;;;;20.10;14.10;;;;;;;0.07;90.59;98590.71;106320;1254;71504;-72
2023/03/07 06:31:20;;;;;;;20.10;13.20;;;;;;;0.10;91.23;98590.64;106159;1253;72659;-70
2023/03/07 06:33:47;;;;;;;18.10;13.50;;;;;;;0.18;91.27;98590.27;105881;1253;60424;-72
2023/03/07 06:36:16;;;;;;;22.90;14.00;;;;;;;0.15;91.75;98593.14;105926;1257;61572;-73
2023/03/07 06:38:44;;;;;;;22.10;15.10;;;;;;;0.14;92.12;98594.45;105717;1256;72838;-70
2023/03/07 06:41:12;;;;;;;22.00;15.70;;;;;;;0.22;92.14;98590.54;105870;1253;71444;-74
2023/03/07 06:43:39;;;;;;;26.20;16.10;;;;;;;0.19;92.84;98593.88;105630;1256;73585;-73
2023/03/07 06:46:06;;;;;;;25.20;14.20;;;;;;;0.19;93.20;98590.05;105793;1253;61095;-72
2023/03/07 06:48:36;;;;;;;23.90;14.70;;;;;;;0.26;93.29;98584.76;105903;1253;60479;-74
2023/03/07 06:51:08;;;;;;;25.10;16.90;;;;;;;0.26;93.47;98586.17;105917;1258;74913;-75
2023/03/07 06:53:35;;;;;;;24.70;15.70;;;;;;;0.20;93.85;98579.50;105929;1253;70193;-75
2023/03/07 06:56:03;;;;;;;27.40;16.40;;;;;;;0.26;93.87;98576.03;105676;1256;72909;-76
2023/03/07 06:58:30;;;;;;;23.00;14.70;;;;;;;0.27;94.25;98578.92;106228;1253;60589;-78
2023/03/07 07:00:58;;;;;;;20.40;13.90;;;;;;;0.24;94.39;98574.30;106069;1254;61120;-77
2023/03/07 07:03:25;;;;;;;22.30;16.40;;;;;;;0.30;94.49;98573.26;105880;1259;75083;-78
2023/03/07 07:05:51;;;;;;;21.20;14.00;;;;;;;0.33;94.56;98573.73;105759;1254;69848;-77
2023/03/07 07:08:18;;;;;;;23.10;13.90;;;;;;;0.28;94.44;98569.77;105817;1259;73730;-76
2023/03/07 07:10:46;;;;;;;20.00;14.60;;;;;;;0.33;94.59;98562.56;105763;1257;62274;-79
2023/03/07 07:13:14;;;;;;;18.80;13.10;;;;;;;0.37;94.47;98568.81;105823;1256;62559;-77
2023/03/07 07:15:44;;;;;;;17.50;13.10;;;;;;;0.33;94.72;98563.94;105852;1259;74710;-78
2023/03/07 07:18:12;;;;;;;20.70;14.60;;;;;;;0.40;94.79;98567.73;105794;1259;70661;-76
2023/03/07 07:20:42;;;;;;;21.20;14.20;;;;;;;0.44;94.76;98565.10;107460;1257;74015;-77
2023/03/07 07:23:09;;;;;;;21.80;14.60;;;;;;;0.40;95.22;98566.13;108148;1254;62141;-76
2023/03/07 07:25:39;;;;;;;20.20;14.50;;;;;;;0.47;95.16;98566.56;107128;1253;60572;-78
2023/03/07 07:28:06;;;;;;;18.40;13.40;;;;;;;0.53;94.64;98563.04;106573;1259;74198;-78
2023/03/07 07:30:33;;;;;;;19.30;13.90;;;;;;;0.54;94.34;98565.93;105979;1254;69820;-76
2023/03/07 07:33:09;;;;;;;20.30;14.70;;;;;;;0.49;94.63;98571.82;105753;1255;72851;-75
2023/03/07 07:35:38;;;;;;;19.00;14.40;;;;;;;0.52;94.60;98575.33;105880;1253;62560;-76
2023/03/07 07:38:07;;;;;;;21.30;15.40;;;;;;;0.57;94.53;98575.29;105876;1254;60821;-78
2023/03/07 07:40:34;;;;;;;25.40;16.30;;;;;;;0.52;94.82;98578.85;105888;1253;74130;-77
2023/03/07 07:43:01;;;;;;;20.70;14.80;;;;;;;0.54;94.73;98579.56;105775;1260;71373;-76
2023/03/07 07:45:42;;;;;;;22.90;16.20;;;;;;;0.59;94.93;98579.79;105778;1262;72202;-77
2023/03/07 07:48:09;;;;;;;20.90;14.70;;;;;;;0.56;95.05;98579.36;105833;1259;60416;-73
2023/03/07 07:50:37;;;;;;;23.40;15.60;;;;;;;0.59;94.91;98581.21;105655;1256;60504;-76
2023/03/07 07:53:05;;;;;;;22.70;15.40;;;;;;;0.63;94.85;98581.90;105996;1254;74485;-75
2023/03/07 07:55:31;;;;;;;24.60;17.00;;;;;;;0.67;94.89;98581.26;105874;1253;71267;-75
2023/03/07 07:57:58;;;;;;;22.20;16.20;;;;;;;0.62;95.10;98578.52;105863;1259;70508;-76
2023/03/07 08:00:25;;;;;;;24.70;17.00;;;;;;;0.65;95.11;98586.59;105248;1257;62110;-76
2023/03/07 08:02:52;;;;;;;23.00;16.60;;;;;;;0.71;94.93;98582.95;105825;1257;61020;-75
2023/03/07 08:05:23;;;;;;;25.70;16.80;;;;;;;0.72;94.84;98579.77;105824;1255;73033;-76
2023/03/07 08:07:50;;;;;;;28.10;17.20;;;;;;;0.67;94.93;98578.04;105847;1258;71103;-77
2023/03/07 08:10:17;;;;;;;25.50;17.80;;;;;;;0.74;94.87;98576.95;105857;1258;72468;-74
2023/03/07 08:12:50;;;;;;;24.20;17.10;;;;;;;0.81;94.62;98577.27;106075;1254;60511;-74
2023/03/07 08:15:20;;;;;;;23.00;15.70;;;;;;;0.80;94.91;98574.36;106894;1256;60425;-75
2023/03/07 08:17:51;;;;;;;19.00;13.70;;;;;;;0.87;94.79;98583.12;106842;1259;73010;-74
2023/03/07 08:20:21;;;;;;;20.90;15.90;;;;;;;1.01;94.00;98581.54;106092;1256;69477;-75
2023/03/07 08:22:49;;;;;;;22.50;16.50;;;;;;;1.09;93.83;98574.02;105788;1259;73802;-75
2023/03/07 08:25:21;;;;;;;21.30;15.80;;;;;;;1.10;93.78;98576.89;105659;1257;60536;-76
2023/03/07 08:27:52;;;;;;;20.70;14.20;;;;;;;1.12;93.12;98573.80;105985;1259;60598;-75
2023/03/07 08:30:25;;;;;;;20.70;14.90;;;;;;;1.19;92.94;98571.42;105789;1254;73178;-76
2023/03/07 08:32:53;;;;;;;23.20;15.20;;;;;;;1.25;92.92;98571.73;105954;1256;70290;-77
2023/03/07 08:35:20;;;;;;;23.00;14.60;;;;;;;1.29;93.12;98577.00;105808;1254;72601;-78
2023/03/07 08:37:48;;;;;;;22.50;15.30;;;;;;;1.35;92.64;98583.05;105808;1254;62012;-78
2023/03/07 08:40:15;;;;;;;23.70;15.40;;;;;;;1.47;92.13;98577.34;106002;1254;60441;-78
2023/03/07 08:42:42;;;;;;;23.80;16.00;;;;;;;1.48;91.84;98575.29;105996;1254;74097;-79
2023/03/07 08:45:11;;;;;;;21.30;14.50;;;;;;;1.41;91.96;98577.80;105941;1253;68640;-77
2023/03/07 08:47:38;;;;;;;21.90;15.10;;;;;;;1.45;91.01;98585.84;105896;1260;73669;-78
2023/03/07 08:50:05;;;;;;;18.00;14.00;;;;;;;1.49;90.74;98581.88;106385;1253;61512;-79
2023/03/07 08:52:33;;;;;;;23.10;16.50;;;;;;;1.47;90.70;98581.98;106814;1253;60325;-81
2023/03/07 08:55:00;;;;;;;23.00;17.40;;;;;;;1.44;91.57;98579.11;108681;1253;74041;-85
2023/03/07 08:57:32;;;;;;;24.40;17.40;;;;;;;1.46;91.34;98579.64;108825;1256;70211;-85
2023/03/07 09:00:00;;;;;;;20.10;14.70;;;;;;;1.58;91.14;98580.16;107971;1254;73053;-84
2023/03/07 09:02:28;;;;;;;22.60;16.60;;;;;;;1.64;90.80;98589.05;106252;1262;60448;-83
2023/03/07 09:04:54;;;;;;;23.90;16.70;;;;;;;1.60;90.22;98589.74;106428;1253;60368;-83
2023/03/07 09:07:21;;;;;;;23.40;15.80;;;;;;;1.60;90.02;98585.89;106520;1253;74730;-81
2023/03/07 09:09:49;;;;;;;19.90;14.10;;;;;;;1.68;88.93;98579.70;109322;1253;70216;-82
2023/03/07 09:12:16;;;;;;;20.70;16.00;;;;;;;1.80;89.64;98586.36;109092;1253;73137;-83
2023/03/07 09:14:44;;;;;;;21.20;15.40;;;;;;;1.85;88.79;98592.91;107584;1253;60354;-82
2023/03/07 09:17:11;;;;;;;22.60;16.10;;;;;;;2.00;88.62;98585.19;108219;1253;60393;-83
2023/03/07 09:19:38;;;;;;;26.30;17.80;;;;;;;2.29;88.03;98590.73;107378;1257;74853;-81
2023/03/07 09:22:05;;;;;;;22.90;18.10;;;;;;;2.53;87.08;98590.21;107132;1254;71567;-82
2023/03/07 09:24:33;;;;;;;20.20;15.50;;;;;;;2.78;86.42;98591.72;106908;1259;72771;-82
2023/03/07 09:27:02;;;;;;;21.50;16.50;;;;;;;3.10;85.83;98590.61;106988;1259;61908;-78
2023/03/07 09:29:39;;;;;;;23.60;16.20;;;;;;;3.32;85.54;98580.70;106520;1254;59611;-80
2023/03/07 09:32:08;;;;;;;22.60;17.10;;;;;;;3.66;87.12;98584.89;106192;1254;74741;-80
2023/03/07 09:34:38;;;;;;;20.30;15.80;;;;;;;4.04;88.39;98590.94;107709;1253;71552;-81
2023/03/07 09:37:07;;;;;;;18.00;14.70;;;;;;;4.30;88.26;98593.42;108247;1253;72723;-81
2023/03/07 09:39:37;;;;;;;17.60;14.60;;;;;;;4.26;86.99;98589.06;108361;1253;60472;-82
2023/03/07 09:42:33;;;;;;;20.10;15.30;;;;;;;4.11;87.56;98597.78;106404;1260;60427;-82
2023/03/07 09:45:20;;;;;;;17.90;14.80;;;;;;;3.81;83.91;98599.52;106927;1257;74050;-83
2023/03/07 09:48:15;;;;;;;;;;;;;;;3.55;86.03;98603.86;105956;1254;71639;-81
2023/03/07 09:50:53;;;;;;;17.30;14.90;;;;;;;3.38;84.69;98609.00;105645;1254;73870;-81
2023/03/07 09:53:30;;;;;;;18.70;15.30;;;;;;;3.09;84.10;98612.13;105906;1253;60924;-80
2023/03/07 09:55:58;;;;;;;16.80;14.50;;;;;;;2.84;85.48;98607.19;106164;1254;60429;-80
2023/03/07 09:58:25;;;;;;;18.50;14.40;;;;;;;2.75;86.53;98607.36;105984;1262;75200;-78
2023/03/07 10:00:56;;;;;;;17.10;14.80;;;;;;;2.85;86.69;98607.61;107642;1253;69246;-81
2023/03/07 10:03:42;;;;;;;18.90;16.00;;;;;;;3.05;86.07;98599.42;108519;1253;73669;-83
2023/03/07 10:06:15;;;;;;;20.70;15.50;;;;;;;3.60;88.05;98600.08;108884;1255;58837;-77
2023/03/07 10:08:46;;;;;;;19.30;15.60;;;;;;;4.37;84.13;98593.79;106235;1256;60454;-77
2023/03/07 10:11:21;;;;;;;17.40;14.80;;;;;;;5.03;80.59;98592.40;105764;1261;75114;-76
2023/03/07 10:13:57;;;;;;;17.40;14.10;;;;;;;5.60;77.21;98595.55;105802;1263;71693;-77
2023/03/07 10:16:35;;;;;;;18.50;16.00;;;;;;;5.98;73.61;98593.38;105862;1254;73609;-78
2023/03/07 10:19:26;;;;;;;17.50;13.70;;;;;;;6.11;74.56;98589.19;105769;1258;60610;-78
2023/03/07 10:22:15;;;;;;;17.70;15.40;;;;;;;5.95;72.76;98585.48;105805;1255;61686;-78
2023/03/07 10:24:58;;;;;;;20.10;16.00;;;;;;;5.57;73.79;98580.89;105824;1259;73793;-78
2023/03/07 10:27:26;;;;;;;15.90;13.60;;;;;;;5.29;74.50;98584.69;105958;1259;71539;-81
2023/03/07 10:29:55;;;;;;;15.40;13.60;;;;;;;5.24;74.45;98579.84;106056;1254;71908;-79
2023/03/07 10:32:45;;;;;;;14.40;12.70;;;;;;;5.43;75.88;98576.54;106213;1254;60428;-83
2023/03/07 10:35:19;;;;;;;15.90;13.90;;;;;;;5.88;75.53;98571.92;106355;1260;60536;-83
2023/03/07 10:37:51;;;;;;;17.10;14.30;;;;;;;6.30;74.13;98575.98;106034;1253;73458;-83
2023/03/07 10:40:41;;;;;;;16.80;13.60;;;;;;;6.79;71.48;98571.77;106342;1254;71509;-84
2023/03/07 10:43:24;;;;;;;13.90;12.30;;;;;;;7.37;69.54;98563.64;106351;1253;71659;-83
2023/03/07 10:45:58;;;;;;;14.30;12.80;;;;;;;7.66;66.00;98565.20;105872;1254;62029;-75
2023/03/07 10:48:25;;;;;;;14.60;13.10;;;;;;;7.63;65.37;98558.91;105937;1259;60499;-75
2023/03/07 10:51:00;;;;;;;14.40;12.70;;;;;;;7.49;66.03;98554.33;105622;1254;71935;-75
2023/03/07 10:53:31;;;;;;;13.80;12.40;;;;;;;7.47;65.91;98558.27;105523;1257;69695;-77
2023/03/07 10:56:08;;;;;;;14.30;12.80;;;;;;;7.31;63.54;98556.65;106290;1253;73736;-75
2023/03/07 10:58:35;;;;;;;16.10;14.20;;;;;;;7.07;63.57;98558.92;106826;1253;60459;-73
2023/03/07 11:01:05;;;;;;;15.80;14.20;;;;;;;6.90;64.22;98556.65;106384;1255;60515;-77
2023/03/07 11:03:38;;;;;;;14.50;12.60;;;;;;;6.70;64.52;98556.75;105831;1259;75011;-78
2023/03/07 11:06:26;;;;;;;15.60;13.90;;;;;;;6.38;64.44;98555.80;105954;1259;69221;-76
2023/03/07 11:08:54;;;;;;;16.30;14.50;;;;;;;6.09;64.64;98559.08;105786;1260;72752;-75
2023/03/07 11:11:29;;;;;;;15.90;14.20;;;;;;;5.85;64.76;98559.92;105866;1254;60524;-75
2023/03/07 11:14:09;;;;;;;19.30;15.90;;;;;;;5.58;65.50;98554.38;105864;1259;60444;-74
2023/03/07 11:16:52;;;;;;;14.80;12.40;;;;;;;5.40;66.76;98553.03;105893;1259;72989;-74
2023/03/07 11:19:44;;;;;;;18.50;14.40;;;;;;;5.32;66.66;98555.14;105761;1259;69841;-74
2023/03/07 11:22:21;;;;;;;17.20;14.30;;;;;;;5.29;67.08;98552.46;105811;1255;71794;-75
2023/03/07 11:24:51;;;;;;;15.70;14.00;;;;;;;5.25;67.48;98554.58;105859;1254;60571;-75
2023/03/07 11:27:25;;;;;;;16.50;14.20;;;;;;;5.19;67.15;98559.17;105792;1255;60450;-76
2023/03/07 11:30:05;;;;;;;;;;;;;;;5.06;67.55;98554.73;105868;1260;73928;-72
2023/03/07 11:32:33;;;;;;;17.80;13.90;;;;;;;5.11;68.01;98549.60;105841;1259;71448;-75